createdAt,value
2022-10-13T00:01:14.168Z,14.02
2022-10-13T00:03:41.929Z,14.08
2022-10-13T00:06:10.272Z,14.02
2022-10-13T00:08:37.228Z,13.93
2022-10-13T00:11:13.009Z,13.82
2022-10-13T00:13:40.035Z,13.93
2022-10-13T00:16:07.367Z,13.77
2022-10-13T00:18:34.261Z,13.91
2022-10-13T00:21:01.098Z,13.91
2022-10-13T00:23:28.003Z,13.91
2022-10-13T00:25:54.878Z,13.88
2022-10-13T00:28:22.189Z,13.87
2022-10-13T00:30:49.033Z,13.85
2022-10-13T00:33:15.977Z,13.81
2022-10-13T00:35:47.076Z,13.77
2022-10-13T00:38:18.258Z,13.72
2022-10-13T00:40:45.088Z,13.67
2022-10-13T00:43:25.863Z,13.51
2022-10-13T00:45:53.233Z,13.57
2022-10-13T00:48:22.398Z,13.55
2022-10-13T00:50:49.853Z,13.49
2022-10-13T00:53:17.143Z,13.27
2022-10-13T00:55:44.265Z,13.36
2022-10-13T00:58:12.609Z,13.35
2022-10-13T01:00:39.536Z,13.31
2022-10-13T01:03:06.522Z,13.26
2022-10-13T01:05:33.383Z,13.26
2022-10-13T01:08:00.192Z,13.26
2022-10-13T01:10:35.190Z,13.26
2022-10-13T01:13:12.271Z,13.12
2022-10-13T01:15:43.050Z,13.30
2022-10-13T01:18:24.706Z,13.29
2022-10-13T01:21:16.568Z,13.25
2022-10-13T01:23:46.055Z,13.17
2022-10-13T01:26:27.769Z,13.15
2022-10-13T01:29:22.282Z,13.09
2022-10-13T01:32:01.334Z,13.03
2022-10-13T01:34:49.580Z,12.99
2022-10-13T01:37:24.849Z,12.92
2022-10-13T01:40:02.915Z,12.85
2022-10-13T01:42:58.912Z,12.85
2022-10-13T01:45:31.417Z,12.72
2022-10-13T01:47:58.979Z,12.78
2022-10-13T01:50:26.089Z,12.75
2022-10-13T01:52:52.901Z,12.69
2022-10-13T01:55:19.845Z,12.72
2022-10-13T01:57:46.700Z,12.72
2022-10-13T02:00:15.493Z,12.71
2022-10-13T02:03:06.403Z,12.74
2022-10-13T02:05:49.100Z,12.75
2022-10-13T02:08:37.749Z,12.82
2022-10-13T02:11:15.740Z,12.91
2022-10-13T02:14:02.242Z,12.91
2022-10-13T02:16:31.347Z,13.20
2022-10-13T02:18:58.346Z,13.15
2022-10-13T02:21:25.492Z,13.31
2022-10-13T02:23:54.842Z,13.37
2022-10-13T02:26:21.649Z,13.56
2022-10-13T02:28:50.334Z,13.51
2022-10-13T02:31:17.192Z,13.69
2022-10-13T02:33:44.020Z,13.76
2022-10-13T02:36:10.976Z,13.83
2022-10-13T02:38:37.845Z,13.95
2022-10-13T02:41:04.782Z,14.06
2022-10-13T02:43:33.940Z,14.10
2022-10-13T02:46:00.761Z,14.13
2022-10-13T02:48:27.611Z,14.18
2022-10-13T02:50:54.491Z,14.32
2022-10-13T02:53:21.306Z,14.42
2022-10-13T02:55:48.553Z,14.48
2022-10-13T02:58:15.484Z,14.51
2022-10-13T03:00:42.335Z,14.52
2022-10-13T03:03:09.874Z,14.62
2022-10-13T03:05:36.795Z,14.74
2022-10-13T03:08:03.682Z,14.74
2022-10-13T03:10:32.017Z,14.77
2022-10-13T03:12:58.868Z,14.78
2022-10-13T03:15:25.708Z,14.87
2022-10-13T03:17:55.605Z,14.93
2022-10-13T03:20:22.556Z,14.93
2022-10-13T03:22:50.031Z,14.96
2022-10-13T03:25:17.353Z,15.01
2022-10-13T03:27:44.211Z,15.03
2022-10-13T03:30:11.616Z,15.14
2022-10-13T03:32:39.564Z,15.16
2022-10-13T03:35:07.044Z,15.14
2022-10-13T03:37:33.982Z,15.24
2022-10-13T03:40:00.812Z,15.31
2022-10-13T03:42:28.991Z,15.37
2022-10-13T03:44:56.660Z,15.42
2022-10-13T03:47:23.915Z,15.41
2022-10-13T03:49:50.979Z,15.41
2022-10-13T03:52:18.324Z,15.32
2022-10-13T03:54:45.613Z,15.54
2022-10-13T03:57:12.717Z,15.59
2022-10-13T03:59:40.949Z,15.65
2022-10-13T04:02:08.158Z,15.71
2022-10-13T04:04:35.572Z,15.80
2022-10-13T04:07:02.517Z,15.91
2022-10-13T04:09:29.567Z,16.01
2022-10-13T04:11:56.844Z,16.11
2022-10-13T04:14:24.017Z,16.21
2022-10-13T04:16:50.989Z,16.21
2022-10-13T04:19:18.154Z,16.29
2022-10-13T04:21:45.127Z,16.39
2022-10-13T04:24:12.900Z,16.55
2022-10-13T04:26:40.072Z,16.68
2022-10-13T04:29:08.212Z,16.86
2022-10-13T04:31:35.535Z,16.88
2022-10-13T04:34:02.620Z,17.08
2022-10-13T04:36:29.695Z,17.21
2022-10-13T04:38:56.815Z,17.32
2022-10-13T04:41:24.523Z,17.45
2022-10-13T04:43:51.959Z,17.28
2022-10-13T04:46:26.480Z,17.65
2022-10-13T04:48:55.582Z,17.74
2022-10-13T04:51:25.851Z,17.85
2022-10-13T04:53:56.890Z,17.93
2022-10-13T04:56:23.937Z,17.98
2022-10-13T04:58:51.129Z,18.05
2022-10-13T05:01:22.134Z,17.70
2022-10-13T05:03:59.773Z,17.40
2022-10-13T05:06:30.623Z,17.49
2022-10-13T05:08:57.759Z,17.66
2022-10-13T05:11:26.572Z,17.81
2022-10-13T05:13:53.815Z,17.84
2022-10-13T05:16:21.272Z,17.99
2022-10-13T05:18:49.059Z,18.07
2022-10-13T05:21:17.941Z,18.30
2022-10-13T05:23:45.678Z,18.13
2022-10-13T05:26:13.973Z,18.52
2022-10-13T05:28:41.310Z,18.45
2022-10-13T05:31:11.784Z,18.54
2022-10-13T05:33:38.776Z,18.74
2022-10-13T05:36:07.876Z,18.80
2022-10-13T05:38:38.622Z,18.82
2022-10-13T05:41:06.520Z,18.85
2022-10-13T05:43:33.529Z,18.80
2022-10-13T05:46:01.010Z,18.97
2022-10-13T05:48:29.498Z,19.04
2022-10-13T05:50:58.345Z,19.01
2022-10-13T05:53:25.870Z,19.13
2022-10-13T05:55:52.799Z,19.18
2022-10-13T05:58:19.724Z,19.24
2022-10-13T06:00:46.771Z,19.28
2022-10-13T06:03:16.248Z,19.38
2022-10-13T06:05:45.416Z,19.43
2022-10-13T06:08:12.293Z,19.50
2022-10-13T06:10:39.247Z,19.54
2022-10-13T06:13:06.340Z,19.57
2022-10-13T06:15:33.329Z,19.63
2022-10-13T06:18:01.335Z,19.61
2022-10-13T06:20:28.564Z,19.79
2022-10-13T06:22:56.295Z,19.58
2022-10-13T06:25:23.327Z,19.68
2022-10-13T06:27:50.450Z,19.13
2022-10-13T06:30:17.464Z,19.04
2022-10-13T06:32:44.342Z,19.17
2022-10-13T06:35:11.334Z,19.28
2022-10-13T06:37:38.231Z,19.35
2022-10-13T06:40:05.705Z,19.32
2022-10-13T06:42:34.765Z,19.43
2022-10-13T06:45:09.463Z,19.55
2022-10-13T06:47:39.213Z,19.67
2022-10-13T06:50:06.424Z,19.76
2022-10-13T06:52:33.333Z,19.84
2022-10-13T06:55:00.262Z,19.98
2022-10-13T06:57:29.310Z,20.03
2022-10-13T06:59:57.636Z,20.11
2022-10-13T07:02:24.574Z,20.24
2022-10-13T07:04:51.472Z,20.19
2022-10-13T07:07:18.378Z,19.69
2022-10-13T07:09:45.433Z,19.69
2022-10-13T07:12:13.823Z,19.87
2022-10-13T07:14:43.729Z,19.96
2022-10-13T07:17:10.982Z,20.19
2022-10-13T07:19:37.949Z,20.30
2022-10-13T07:22:05.015Z,20.45
2022-10-13T07:24:31.967Z,20.55
2022-10-13T07:27:00.193Z,20.64
2022-10-13T07:29:29.662Z,20.77
2022-10-13T07:31:56.747Z,20.86
2022-10-13T07:34:23.623Z,21.00
2022-10-13T07:36:50.589Z,21.00
2022-10-13T07:39:17.542Z,21.19
2022-10-13T07:41:48.708Z,21.27
2022-10-13T07:44:17.821Z,21.35
2022-10-13T07:46:44.796Z,21.47
2022-10-13T07:49:15.283Z,21.58
2022-10-13T07:51:44.452Z,21.54
2022-10-13T07:54:11.369Z,21.74
2022-10-13T07:56:39.661Z,21.83
2022-10-13T07:59:07.343Z,21.97
2022-10-13T08:01:34.400Z,22.10
2022-10-13T08:04:01.327Z,22.22
2022-10-13T08:06:28.486Z,22.33
2022-10-13T08:08:58.305Z,22.47
2022-10-13T08:11:25.400Z,22.55
2022-10-13T08:13:52.856Z,22.65
2022-10-13T08:16:22.912Z,22.78
2022-10-13T08:18:49.861Z,22.89
2022-10-13T08:24:08.857Z,23.16
2022-10-13T08:26:35.792Z,23.28
2022-10-13T08:29:20.925Z,23.43
2022-10-13T08:34:16.731Z,23.69
2022-10-13T08:36:43.940Z,23.80
2022-10-13T08:39:10.936Z,23.91
2022-10-13T08:41:39.770Z,24.05
2022-10-13T08:44:59.301Z,24.13
2022-10-13T08:47:16.042Z,24.06
2022-10-13T08:49:43.025Z,24.01
2022-10-13T08:52:13.448Z,24.07
2022-10-13T08:54:40.396Z,24.16
2022-10-13T08:57:09.219Z,24.19
2022-10-13T08:59:36.109Z,24.36
2022-10-13T09:02:10.203Z,24.37
2022-10-13T09:04:41.538Z,24.53
2022-10-13T09:07:23.285Z,24.37
2022-10-13T09:09:52.001Z,24.60
2022-10-13T09:12:25.117Z,24.68
2022-10-13T09:15:05.162Z,24.80
2022-10-13T09:17:32.754Z,24.91
2022-10-13T09:20:20.645Z,25.01
2022-10-13T09:23:08.158Z,25.13
2022-10-13T09:25:42.621Z,25.11
2022-10-13T09:28:18.621Z,25.17
2022-10-13T09:30:49.458Z,25.27
2022-10-13T09:33:24.405Z,25.25
2022-10-13T09:35:57.173Z,25.46
2022-10-13T09:38:25.379Z,25.56
2022-10-13T09:41:05.865Z,25.55
2022-10-13T09:43:56.924Z,25.65
2022-10-13T09:46:31.541Z,25.75
2022-10-13T09:49:04.786Z,25.83
2022-10-13T09:51:40.951Z,25.93
2022-10-13T09:54:28.732Z,26.00
2022-10-13T09:57:01.102Z,26.09
2022-10-13T09:59:28.417Z,26.14
2022-10-13T10:01:55.316Z,26.20
2022-10-13T10:04:30.378Z,26.31
2022-10-13T10:06:57.279Z,26.41
2022-10-13T10:09:34.666Z,26.50
2022-10-13T10:12:02.023Z,26.57
2022-10-13T10:14:33.594Z,26.39
2022-10-13T10:17:21.893Z,26.00
2022-10-13T10:19:58.187Z,25.71
2022-10-13T10:22:30.710Z,25.71
2022-10-13T10:25:04.819Z,25.61
2022-10-13T10:27:43.773Z,25.19
2022-10-13T10:30:20.519Z,25.20
2022-10-13T10:33:10.652Z,25.14
2022-10-13T10:35:52.327Z,25.43
2022-10-13T10:38:39.735Z,25.46
2022-10-13T10:41:44.638Z,25.49
2022-10-13T10:44:20.237Z,25.18
2022-10-13T10:46:48.721Z,25.08
2022-10-13T10:49:32.760Z,25.15
2022-10-13T10:52:00.214Z,25.18
2022-10-13T10:54:49.078Z,25.13
2022-10-13T10:57:25.310Z,25.33
2022-10-13T11:00:00.971Z,25.32
2022-10-13T11:02:41.148Z,25.40
2022-10-13T11:05:08.196Z,25.36
2022-10-13T11:07:55.661Z,25.47
2022-10-13T11:10:23.203Z,25.45
2022-10-13T11:12:53.634Z,25.46
2022-10-13T11:15:33.785Z,25.38
2022-10-13T11:18:00.723Z,25.47
2022-10-13T11:20:36.650Z,25.48
2022-10-13T11:23:03.489Z,25.43
2022-10-13T11:25:40.550Z,25.50
2022-10-13T11:28:22.659Z,25.51
2022-10-13T11:30:50.592Z,25.48
2022-10-13T11:33:38.567Z,25.52
2022-10-13T11:36:30.010Z,25.51
2022-10-13T11:39:28.150Z,25.54
2022-10-13T11:42:05.954Z,25.54
2022-10-13T11:44:55.463Z,25.56
2022-10-13T11:47:54.191Z,25.58
2022-10-13T11:51:23.300Z,25.57
2022-10-13T11:54:12.692Z,25.62
2022-10-13T11:57:22.508Z,25.61
2022-10-13T11:59:51.785Z,25.62
2022-10-13T12:02:27.028Z,25.64
2022-10-13T12:05:22.611Z,25.69
2022-10-13T12:07:49.717Z,25.67
2022-10-13T12:10:31.080Z,25.61
2022-10-13T12:12:59.734Z,25.71
2022-10-13T12:15:28.785Z,25.74
2022-10-13T12:17:55.688Z,25.76
2022-10-13T12:20:28.578Z,25.76
2022-10-13T12:22:55.729Z,25.77
2022-10-13T12:25:26.996Z,25.78
2022-10-13T12:27:59.101Z,25.78
2022-10-13T12:30:37.056Z,25.72
2022-10-13T12:33:04.790Z,25.79
2022-10-13T12:35:33.179Z,25.74
2022-10-13T12:38:06.109Z,25.85
2022-10-13T12:40:35.152Z,25.71
2022-10-13T12:43:03.669Z,25.84
2022-10-13T12:45:32.905Z,25.84
2022-10-13T12:47:59.796Z,25.70
2022-10-13T12:50:27.552Z,25.88
2022-10-13T12:52:55.755Z,25.88
2022-10-13T12:55:22.946Z,25.94
2022-10-13T12:57:50.638Z,25.85
2022-10-13T13:00:20.966Z,25.84
2022-10-13T13:02:57.254Z,25.84
2022-10-13T13:06:06.753Z,25.65
2022-10-13T13:08:33.693Z,25.17
2022-10-13T13:11:02.013Z,24.90
2022-10-13T13:13:29.025Z,24.76
2022-10-13T13:16:16.904Z,24.55
2022-10-13T13:18:44.843Z,24.42
2022-10-13T13:21:12.891Z,24.28
2022-10-13T13:23:42.079Z,24.29
2022-10-13T13:26:16.847Z,24.08
2022-10-13T13:28:51.148Z,24.29
2022-10-13T13:31:18.494Z,24.45
2022-10-13T13:33:46.399Z,24.58
2022-10-13T13:36:19.906Z,24.69
2022-10-13T13:38:47.868Z,24.77
2022-10-13T13:41:14.900Z,24.91
2022-10-13T13:43:41.889Z,25.02
2022-10-13T13:46:16.933Z,25.11
2022-10-13T13:48:43.867Z,25.17
2022-10-13T13:51:10.770Z,25.24
2022-10-13T13:53:37.809Z,25.27
2022-10-13T13:56:05.062Z,25.33
2022-10-13T13:58:31.910Z,25.37
2022-10-13T14:00:59.684Z,25.40
2022-10-13T14:03:26.619Z,25.43
2022-10-13T14:05:53.436Z,25.40
2022-10-13T14:08:20.290Z,25.50
2022-10-13T14:10:47.144Z,25.54
2022-10-13T14:13:18.076Z,25.56
2022-10-13T14:15:44.886Z,25.58
2022-10-13T14:18:13.474Z,25.50
2022-10-13T14:20:42.037Z,25.60
2022-10-13T14:23:08.886Z,25.63
2022-10-13T14:25:38.335Z,25.64
2022-10-13T14:28:05.168Z,25.69
2022-10-13T14:30:32.034Z,25.68
2022-10-13T14:32:58.990Z,25.64
2022-10-13T14:35:26.516Z,25.68
2022-10-13T14:37:53.315Z,25.66
2022-10-13T14:40:20.188Z,25.69
2022-10-13T14:42:47.080Z,25.69
2022-10-13T14:45:15.898Z,25.66
2022-10-13T14:47:42.935Z,25.67
2022-10-13T14:50:10.351Z,25.67
2022-10-13T14:52:37.172Z,25.67
2022-10-13T14:55:04.369Z,25.68
2022-10-13T14:57:31.189Z,25.65
2022-10-13T15:00:01.685Z,25.63
2022-10-13T15:02:29.260Z,25.62
2022-10-13T15:04:56.088Z,25.59
2022-10-13T15:07:23.203Z,25.55
2022-10-13T15:10:04.912Z,25.57
2022-10-13T15:12:33.024Z,25.48
2022-10-13T15:14:59.907Z,25.56
2022-10-13T15:17:26.751Z,25.52
2022-10-13T15:19:53.682Z,25.52
2022-10-13T15:22:20.806Z,25.52
2022-10-13T15:24:47.871Z,25.50
2022-10-13T15:27:14.837Z,25.45
2022-10-13T15:29:41.694Z,25.44
2022-10-13T15:32:11.845Z,25.42
2022-10-13T15:34:40.029Z,25.32
2022-10-13T15:37:07.235Z,25.38
2022-10-13T15:39:34.077Z,25.34
2022-10-13T15:42:00.895Z,25.29
2022-10-13T15:44:28.045Z,25.26
2022-10-13T15:47:07.383Z,25.21
2022-10-13T15:49:37.473Z,25.17
2022-10-13T15:52:04.475Z,25.14
2022-10-13T15:54:31.473Z,25.07
2022-10-13T15:56:58.344Z,25.02
2022-10-13T15:59:25.598Z,24.95
2022-10-13T16:01:52.683Z,24.94
2022-10-13T16:04:19.541Z,24.92
2022-10-13T16:06:46.480Z,24.86
2022-10-13T16:09:13.342Z,24.84
2022-10-13T16:11:40.226Z,24.81
2022-10-13T16:14:07.050Z,24.75
2022-10-13T16:16:33.883Z,24.71
2022-10-13T16:19:00.784Z,24.68
2022-10-13T16:21:27.732Z,24.64
2022-10-13T16:23:54.633Z,24.62
2022-10-13T16:26:22.178Z,24.59
2022-10-13T16:28:49.173Z,24.55
2022-10-13T16:31:16.889Z,24.50
2022-10-13T16:33:44.387Z,24.37
2022-10-13T16:36:20.426Z,24.43
2022-10-13T16:38:52.293Z,24.37
2022-10-13T16:41:19.728Z,24.32
2022-10-13T16:43:46.818Z,24.17
2022-10-13T16:46:14.730Z,24.22
2022-10-13T16:48:41.981Z,24.16
2022-10-13T16:51:10.564Z,24.10
2022-10-13T16:53:38.723Z,24.05
2022-10-13T16:56:06.345Z,23.86
2022-10-13T16:58:33.200Z,23.94
2022-10-13T17:01:05.476Z,23.89
2022-10-13T17:03:32.370Z,23.84
2022-10-13T17:05:59.234Z,23.79
2022-10-13T17:08:26.171Z,23.74
2022-10-13T17:10:58.106Z,23.72
2022-10-13T17:13:25.173Z,23.68
2022-10-13T17:15:52.522Z,23.65
2022-10-13T17:18:19.383Z,23.61
2022-10-13T17:20:57.331Z,23.58
2022-10-13T17:23:24.472Z,23.57
2022-10-13T17:25:51.942Z,23.43
2022-10-13T17:28:19.003Z,23.34
2022-10-13T17:30:46.145Z,23.20
2022-10-13T17:33:12.976Z,23.11
2022-10-13T17:35:40.992Z,23.02
2022-10-13T17:38:07.796Z,22.96
2022-10-13T17:40:35.715Z,22.76
2022-10-13T17:43:02.905Z,22.92
2022-10-13T17:45:30.332Z,22.77
2022-10-13T17:47:58.829Z,22.72
2022-10-13T17:50:29.772Z,22.63
2022-10-13T17:52:56.637Z,22.60
2022-10-13T17:55:23.438Z,22.53
2022-10-13T17:57:50.378Z,22.48
2022-10-13T18:00:17.352Z,22.42
2022-10-13T18:02:45.087Z,22.37
2022-10-13T18:05:12.055Z,22.33
2022-10-13T18:07:38.919Z,22.25
2022-10-13T18:10:06.290Z,22.29
2022-10-13T18:12:33.206Z,22.19
2022-10-13T18:15:00.079Z,22.13
2022-10-13T18:17:27.232Z,22.09
2022-10-13T18:19:54.085Z,22.07
2022-10-13T18:22:20.965Z,21.97
2022-10-13T18:24:47.798Z,21.92
2022-10-13T18:27:14.761Z,21.88
2022-10-13T18:29:42.286Z,21.84
2022-10-13T18:32:09.165Z,21.79
2022-10-13T18:34:36.288Z,21.75
2022-10-13T18:37:05.542Z,21.70
2022-10-13T18:39:34.407Z,21.67
2022-10-13T18:42:01.591Z,21.67
2022-10-13T18:44:33.945Z,21.56
2022-10-13T18:47:00.770Z,21.56
2022-10-13T18:49:33.523Z,21.51
2022-10-13T18:52:01.114Z,21.49
2022-10-13T18:54:28.264Z,21.45
2022-10-13T18:56:55.234Z,21.42
2022-10-13T18:59:22.124Z,21.38
2022-10-13T19:01:49.141Z,21.20
2022-10-13T19:04:16.937Z,21.29
2022-10-13T19:06:43.892Z,21.24
2022-10-13T19:09:14.360Z,21.22
2022-10-13T19:11:41.343Z,21.18
2022-10-13T19:14:10.892Z,21.12
2022-10-13T19:16:38.732Z,21.06
2022-10-13T19:19:05.862Z,21.02
2022-10-13T19:21:32.827Z,20.97
2022-10-13T19:23:59.802Z,20.94
2022-10-13T19:26:29.906Z,20.89
2022-10-13T19:28:58.507Z,20.87
2022-10-13T19:31:26.418Z,20.82
2022-10-13T19:33:54.405Z,20.81
2022-10-13T19:36:30.284Z,20.78
2022-10-13T19:39:01.074Z,20.73
2022-10-13T19:41:28.891Z,20.60
2022-10-13T19:43:55.728Z,20.67
2022-10-13T19:46:23.982Z,20.65
2022-10-13T19:48:50.912Z,20.59
2022-10-13T19:51:17.839Z,20.58
2022-10-13T19:53:44.750Z,20.56
2022-10-13T19:56:28.249Z,20.54
2022-10-13T19:58:55.195Z,20.48
2022-10-13T20:01:22.176Z,20.34
2022-10-13T20:03:49.086Z,20.43
2022-10-13T20:06:16.207Z,20.24
2022-10-13T20:08:43.157Z,20.33
2022-10-13T20:11:10.877Z,20.29
2022-10-13T20:13:37.878Z,20.22
2022-10-13T20:16:09.474Z,20.19
2022-10-13T20:18:36.344Z,20.17
2022-10-13T20:21:07.294Z,20.16
2022-10-13T20:23:34.316Z,20.09
2022-10-13T20:26:04.350Z,20.07
2022-10-13T20:28:37.980Z,20.02
2022-10-13T20:31:08.804Z,19.98
2022-10-13T20:33:35.730Z,19.96
2022-10-13T20:36:03.916Z,19.92
2022-10-13T20:38:31.480Z,19.90
2022-10-13T20:41:06.357Z,19.87
2022-10-13T20:43:33.757Z,19.77
2022-10-13T20:46:04.852Z,19.78
2022-10-13T20:48:51.209Z,19.71
2022-10-13T20:51:21.633Z,19.67
2022-10-13T20:53:48.732Z,19.62
2022-10-13T20:56:18.376Z,19.61
2022-10-13T20:58:45.432Z,19.55
2022-10-13T21:01:12.494Z,19.52
2022-10-13T21:03:39.501Z,19.49
2022-10-13T21:06:09.523Z,19.45
2022-10-13T21:08:36.409Z,19.41
2022-10-13T21:11:04.471Z,19.38
2022-10-13T21:13:31.372Z,19.34
2022-10-13T21:15:58.281Z,19.32
2022-10-13T21:18:25.755Z,19.28
2022-10-13T21:20:52.590Z,19.25
2022-10-13T21:23:19.460Z,19.21
2022-10-13T21:25:46.282Z,19.19
2022-10-13T21:28:13.201Z,19.14
2022-10-13T21:30:40.142Z,19.10
2022-10-13T21:33:07.017Z,19.08
2022-10-13T21:35:35.441Z,19.04
2022-10-13T21:38:02.301Z,18.98
2022-10-13T21:40:30.861Z,18.94
2022-10-13T21:42:57.693Z,18.90
2022-10-13T21:45:24.522Z,18.87
2022-10-13T21:47:51.366Z,18.80
2022-10-13T21:50:18.173Z,18.77
2022-10-13T21:52:46.461Z,18.74
2022-10-13T21:55:14.204Z,18.69
2022-10-13T21:57:42.846Z,18.66
2022-10-13T22:00:10.256Z,18.62
2022-10-13T22:02:39.643Z,18.58
2022-10-13T22:05:07.845Z,18.55
2022-10-13T22:07:34.772Z,18.50
2022-10-13T22:10:01.643Z,18.37
2022-10-13T22:12:28.480Z,18.48
2022-10-13T22:14:55.343Z,18.33
2022-10-13T22:17:22.852Z,18.41
2022-10-13T22:19:49.966Z,18.36
2022-10-13T22:22:16.905Z,18.32
2022-10-13T22:24:43.758Z,18.32
2022-10-13T22:27:10.591Z,18.30
2022-10-13T22:29:37.434Z,18.28
2022-10-13T22:32:04.484Z,18.10
2022-10-13T22:34:31.342Z,18.22
2022-10-13T22:36:58.250Z,18.19
2022-10-13T22:39:25.141Z,18.17
2022-10-13T22:41:53.315Z,18.13
2022-10-13T22:44:20.187Z,18.09
2022-10-13T22:46:47.012Z,18.30
2022-10-13T22:49:13.937Z,18.07
2022-10-13T22:51:40.800Z,18.03
2022-10-13T22:54:07.794Z,18.00
2022-10-13T22:56:34.842Z,17.96
2022-10-13T22:59:04.231Z,17.93
2022-10-13T23:01:31.089Z,17.87
2022-10-13T23:03:58.407Z,17.83
2022-10-13T23:06:27.333Z,17.84
2022-10-13T23:08:54.437Z,17.68
2022-10-13T23:11:21.370Z,17.77
2022-10-13T23:13:48.312Z,17.71
2022-10-13T23:16:17.700Z,17.69
2022-10-13T23:18:44.559Z,17.67
2022-10-13T23:21:26.117Z,17.68
2022-10-13T23:23:57.161Z,17.60
2022-10-13T23:26:24.234Z,17.55
2022-10-13T23:28:51.362Z,17.56
2022-10-13T23:31:18.366Z,17.54
2022-10-13T23:33:45.415Z,17.50
2022-10-13T23:36:16.085Z,17.55
2022-10-13T23:38:44.391Z,17.28
2022-10-13T23:41:12.845Z,17.42
2022-10-13T23:43:40.582Z,17.39
2022-10-13T23:46:07.525Z,17.47
2022-10-13T23:48:34.350Z,17.34
2022-10-13T23:51:06.191Z,17.33
2022-10-13T23:53:36.850Z,17.28
2022-10-13T23:56:04.737Z,17.24
2022-10-13T23:58:32.260Z,17.22
